Epic Sentosa — 9V2720 — position and weather

sailwx.info

Track history (hours):
 
Tides and Currents Weather Stations Pressure Air Temp Water Temp Dewpoint Dewpoint Depression Visibility Wind Speed Wind Dir Waves Ship Positions

Epic Sentosa

Last reported at 2018-Jan-20 19:47 UTC. Time now 2018-Feb-21 09:52 UTC.
Position N 01°09' E 103°47'.
Warning: this ship's position is 31 days out of date.

Length 120 m; draft 6.3 m.

Type: Ship (hazmat cat D). MMSI: 565502000.

Date/timePositionNaut miles runAvg speedWind from/ knotsBaromVisibWave heightAir tempDewpointWater temp
2018-Jan-20 19:47N 01°09' E 103°47'412.7
2018-Jan-20 19:30N 01°06' E 103°45'9 4.6
2018-Jan-20 17:33N 01°13' E 103°39'1 8.4
2018-Jan-20 17:29N 01°14' E 103°38'0 0.6
2018-Jan-20 16:59N 01°14' E 103°38'0 0.0
2018-Jan-20 16:13N 01°14' E 103°38'0 0.0
2018-Jan-20 15:55N 01°14' E 103°38'0 0.0
2018-Jan-20 15:25N 01°14' E 103°38'0 0.0
2018-Jan-20 14:49N 01°14' E 103°38'0 0.0
2018-Jan-20 14:28N 01°14' E 103°38'0 0.0
2018-Jan-20 13:55N 01°14' E 103°38'0 0.0
2018-Jan-20 13:25N 01°14' E 103°38'0 0.0
2018-Jan-20 11:59N 01°14' E 103°38'0 0.0
2018-Jan-20 05:50N 01°14' E 103°38'2 5.0
2018-Jan-20 05:31N 01°12' E 103°39'3 5.1
2018-Jan-20 04:55N 01°13' E 103°36'  
Track history (hours):
 
Tides and Currents Weather Stations Pressure Air Temp Water Temp Dewpoint Dewpoint Depression Visibility Wind Speed Wind Dir Waves Ship Positions

Epic Sentosa

Last reported at 2018-Jan-20 19:47 UTC. Time now 2018-Feb-21 09:52 UTC.
Position N 01°09' E 103°47'.
Warning: this ship's position is 31 days out of date.

Length 120 m; draft 6.3 m.

Type: Ship (hazmat cat D). MMSI: 565502000.

Date/timePositionNaut miles runAvg speedWind from/ knotsBaromVisibWave heightAir tempDewpointWater temp
2018-Jan-20 19:47N 01°09' E 103°47'412.7
2018-Jan-20 19:30N 01°06' E 103°45'9 4.6
2018-Jan-20 17:33N 01°13' E 103°39'1 8.4
2018-Jan-20 17:29N 01°14' E 103°38'0 0.6
2018-Jan-20 16:59N 01°14' E 103°38'0 0.0
2018-Jan-20 16:13N 01°14' E 103°38'0 0.0
2018-Jan-20 15:55N 01°14' E 103°38'0 0.0
2018-Jan-20 15:25N 01°14' E 103°38'0 0.0
2018-Jan-20 14:49N 01°14' E 103°38'0 0.0
2018-Jan-20 14:28N 01°14' E 103°38'0 0.0
2018-Jan-20 13:55N 01°14' E 103°38'0 0.0
2018-Jan-20 13:25N 01°14' E 103°38'0 0.0
2018-Jan-20 11:59N 01°14' E 103°38'0 0.0
2018-Jan-20 05:50N 01°14' E 103°38'2 5.0
2018-Jan-20 05:31N 01°12' E 103°39'3 5.1
2018-Jan-20 04:55N 01°13' E 103°36'  

Dump ship's entire track history